Terminal Aerodrome Forecast
Issued by NWS

Home | Current Version | Previous Version | Text Only | Print | Product List | Glossary On
Versions: 1 2 3 4 5 6 7 8 9 10 11 12 13 14 15 16 17 18 19 20 21 22 23 24 25 26 27
000
FTUS43 KDLH 041144
TAFHYR
TAF
KHYR 041144Z 0412/0512 16007KT 3SM -SN BR SCT015 OVC028
     FM041500 17007KT 2SM -SN BR SCT008 OVC012
      TEMPO 0416/0418 1SM -SN BR BKN008
     FM042300 21006KT 4SM -SHSN BR OVC012
     FM050900 21005KT 5SM BR VCSH SCT012 OVC022=

USA.gov is the U.S. government's official web portal to all federal, state and local government web resources and services.